Sponsor Message:
Civil Aviation Forum
My Starred Topics | Profile | New Topic | Forum Index | Help | Search 
LAX To OAK Via STS? (Horizon Q400)  
User currently offlineTimz From United States of America, joined Sep 1999, 6709 posts, RR: 7
Posted (5 years 4 months 2 weeks 2 days 4 hours ago) and read 1813 times:

http://flightaware.com/live/flight/QXE468

3 replies: All unread, jump to last
 
User currently offline71Zulu From United States of America, joined Aug 2006, 3049 posts, RR: 0
Reply 1, posted (5 years 4 months 2 weeks 2 days 4 hours ago) and read 1783 times:

Looks like low visibilty at STS this morning

http://flightaware.com/live/airport/KSTS/wx/



The good old days: Delta L-1011s at MSY
User currently offlineHiflyer From United States of America, joined Nov 2004, 2153 posts, RR: 3
Reply 2, posted (5 years 4 months 2 weeks 2 days 4 hours ago) and read 1764 times:

Little foggy for a bit this morning might have something to do with it. Approach plates show 200 ceiling and 1/2 mile visibility so a weather deal would be a good first guess.

000
SAUS70 KWBC 061900 RRE
MTRSTS
METAR KSTS 061853Z 00000KT 1/4SM FG VV001 04/04 A3029 RMK AO2 SLP250
R32/0800FT T00390039

000
SAUS70 KWBC 061800 RRR
MTRSTS
METAR KSTS 061753Z 00000KT M1/4SM FG VV001 03/02 A3030 RMK AO2 SLP256
R32/0800FT T00280022 10028 21017 51012

000
SAUS70 KWBC 061700 RRL
MTRSTS
METAR KSTS 061653Z 00000KT M1/4SM FG VV006 02/01 A3030 RMK AO2 SLP254
T00170011


User currently offlineJamake1 From United States of America, joined May 2004, 978 posts, RR: 2
Reply 3, posted (5 years 4 months 2 weeks 2 days 4 hours ago) and read 1748 times:

Ahhh...

Brings me back to the winters of working for PSA at CCR and the sound of those BAe-146 engines roaring a few hundred feet above the fog ceiling. Those missed approaches always ending in a diversion to OAK. Pacific Southwest Airlines became Pacific Southwest Buslines on during those foggy winter days...



"She's a a cruel lover."...E. Diaz referring to United's B747-400.
Top Of Page
Forum Index

This topic is archived and can not be replied to any more.

Printer friendly format

Similar topics:More similar topics...
YYZ To YVR Via Interstate 94 And US2. posted Sun Oct 19 2008 15:57:24 by GhYHZ
A Chater Flight To FSD Via UAL posted Mon Oct 13 2008 11:29:15 by Jet13
Turkish Airlines To Fly to GRU (via DKR) In 2009 posted Wed Oct 8 2008 06:33:35 by Hardiwv
UA To Operate LAX To MEL Nonstop posted Tue Sep 2 2008 09:37:10 by UAL777UK
DL- Atlanta To Fortaleza Via Recife posted Sun Aug 31 2008 11:49:43 by CVG2LGA
Kingfisher B721 Enroute To OAK. posted Mon Aug 11 2008 23:03:05 by Dazed767
Emirates A380 Enroute From LAX To JFK posted Wed Aug 6 2008 09:16:30 by Vulindlela744
UA Drops ORD-GEG/SJC, DEN-CLT, LAX-AUS/OAK,SFO-ATL posted Fri Jul 18 2008 08:57:08 by LAXintl
What Is The Purpose Of Qantas Flight 8 LAX To SYD? posted Tue Mar 4 2008 21:21:47 by Access-Air
VS Flying Club To DXB Via ...? posted Tue Feb 5 2008 02:25:40 by Swiftski
DL Expands @ JFK, DL Ups LAX To 8 Daily, SFO To 6 posted Mon Nov 14 2011 06:44:17 by g500